Flight Number: EUR3050 Duration: 11:00
Departure: Dublin Airport (EIDW) at 07:00 Distance: 4515 Nm
Arrival: San Diego Int'l Airport (KSAN) at 18:00 Equipment: B777

Weather Information
Dublin Airport, Ireland (EIDW) 53-26N 006-15W 85M Aug 19, 2018 - 05:00 AM EDT / 2018.08.19 0900 UTC
Wind: from the W (270 degrees) at 16 MPH (14 KT):0
Visibility: 4 mile(s):0
Sky conditions: mostly cloudy Weather: light drizzle Temperature: 62 F (17 C) Dew Point: 59 F (15 C) Relative Humidity: 88% Pressure (altimeter): 29.97 in. Hg (1015 hPa)
ob: EIDW 190900Z 27014KT 8000 -DZ FEW006 SCT008 BKN010 17/15 Q1015 NOSIG cycle: 9
Sunrise: 05:17 Sunset: 19:40 (UTC)

SAN DIEGO INTERNATIONAL \LINDBERGH FLD, CA, United States (KSAN) 32-44N 117-11W 12M Aug 19, 2018 - 04:51 AM EDT / 2018.08.19 0851 UTC
Wind: from the W (280 degrees) at 5 MPH (4 KT):0
Visibility: 10 mile(s):0
Sky conditions: mostly cloudy Temperature: 73.0 F (22.8 C) Dew Point: 66.0 F (18.9 C) Relative Humidity: 78% Pressure (altimeter): 29.96 in. Hg (1014 hPa) Pressure tendency: 0.03 inches (1.0 hPa) lower than three hours ago
ob: KSAN 190851Z 28004KT 10SM BKN014 BKN250 23/19 A2996 RMK AO2 SLP146 T02280189 58010 cycle: 9
Sunrise: 13:18 Sunset: 02:26 (UTC)

TAF:2018/08/19 09:10 TAF AMD KSAN 190907Z 1909/2012 VRB04KT P6SM BKN014 FM191700 28009KT P6SM FEW017 FM200300 VRB04KT P6SM SCT015 FM200500 VRB04KT P6SM OVC012

This route has never been flown.

Route map